Time;durP1;ratioP1;P1;durP2;ratioP2;P2;SDS_P1;SDS_P2;PMS_P1;PMS_P2;Temp;Humidity;BMP_temperature;BMP_pressure;BME280_temperature;BME280_humidity;BME280_pressure;Samples;Min_cycle;Max_cycle;Signal;HPM_P1;HPM_P2
2022/12/10 00:00:11;;;;;;;8.67;8.47;;;-0.70;99.90;;;;;;5126681;28;20235;-82
2022/12/10 00:02:38;;;;;;;8.40;8.20;;;-0.70;99.90;;;;;;5126237;28;20294;-81
2022/12/10 00:05:25;;;;;;;8.40;8.20;;;-0.80;99.90;;;;;;5126404;28;20224;-81
2022/12/10 00:07:55;;;;;;;8.37;8.17;;;-0.80;99.90;;;;;;5126231;28;20238;-81
2022/12/10 00:10:24;;;;;;;8.30;8.10;;;-0.70;99.90;;;;;;5126639;28;20225;-81
2022/12/10 00:12:54;;;;;;;8.30;8.10;;;-0.70;99.90;;;;;;5125189;28;20243;-81
2022/12/10 00:15:23;;;;;;;8.37;8.17;;;-0.60;99.90;;;;;;5126356;28;20300;-81
2022/12/10 00:17:52;;;;;;;8.30;8.10;;;-0.70;99.90;;;;;;5125323;28;20263;-84
2022/12/10 00:20:31;;;;;;;8.50;8.30;;;-0.70;99.90;;;;;;5125743;28;20266;-82
2022/12/10 00:23:00;;;;;;;8.60;8.40;;;-0.70;99.90;;;;;;5125083;28;20323;-82
2022/12/10 00:25:30;;;;;;;8.70;8.50;;;-0.60;99.90;;;;;;5124888;28;20223;-81
2022/12/10 00:27:58;;;;;;;8.60;8.40;;;-0.60;99.90;;;;;;5126328;28;20232;-82
2022/12/10 00:30:28;;;;;;;8.60;8.40;;;-0.60;99.90;;;;;;5126289;28;20244;-81
2022/12/10 00:33:00;;;;;;;8.30;8.10;;;-0.60;99.90;;;;;;5130571;28;20243;-81
2022/12/10 00:35:29;;;;;;;8.47;8.27;;;-0.60;99.90;;;;;;5128104;28;20231;-82
2022/12/10 00:38:00;;;;;;;8.33;8.13;;;-0.70;99.90;;;;;;5126836;28;20262;-81
2022/12/10 00:40:27;;;;;;;8.40;8.20;;;-0.70;99.90;;;;;;5127355;28;20274;-82
2022/12/10 00:42:55;;;;;;;8.53;8.33;;;-0.70;99.90;;;;;;5125474;28;20250;-82
2022/12/10 00:45:25;;;;;;;8.37;8.17;;;-0.70;99.90;;;;;;5125843;28;20222;-82
2022/12/10 00:47:57;;;;;;;8.50;8.30;;;-0.70;99.90;;;;;;5125719;28;20267;-82
2022/12/10 00:50:25;;;;;;;8.30;8.10;;;-0.70;99.90;;;;;;5125501;28;20253;-82
2022/12/10 00:53:28;;;;;;;8.40;8.20;;;-0.80;99.90;;;;;;5160151;22;20223;-82
2022/12/10 00:56:23;;;;;;;8.37;8.17;;;-0.90;99.90;;;;;;5137882;27;20263;-82
2022/12/10 00:59:03;;;;;;;8.30;8.10;;;-0.80;99.90;;;;;;5127229;28;20299;-82
2022/12/10 01:04:48;;;;;;;8.00;7.80;;;-0.80;99.90;;;;;;5099665;28;20231;-82
2022/12/10 01:07:25;;;;;;;8.17;7.97;;;-0.70;99.90;;;;;;5101388;28;20240;-82
2022/12/10 01:10:06;;;;;;;8.40;8.20;;;-0.80;99.90;;;;;;5100243;28;20228;-82
2022/12/10 01:12:47;;;;;;;8.43;8.23;;;-0.80;99.90;;;;;;5099822;28;20244;-82
2022/12/10 01:18:15;;;;;;;8.17;7.97;;;-0.90;99.90;;;;;;5096274;28;20249;-82
2022/12/10 01:20:48;;;;;;;8.40;8.20;;;-0.90;99.90;;;;;;5101201;28;20267;-82
2022/12/10 01:23:24;;;;;;;8.20;8.00;;;-0.90;99.90;;;;;;5101237;28;20295;-82
2022/12/10 01:26:10;;;;;;;8.30;8.10;;;-0.90;99.90;;;;;;5100137;28;20243;-82
2022/12/10 01:28:54;;;;;;;8.20;8.00;;;-0.90;99.90;;;;;;5099434;28;20235;-82
2022/12/10 01:34:38;;;;;;;8.20;8.00;;;-0.80;99.90;;;;;;5098611;28;20228;-82
2022/12/10 01:37:19;;;;;;;8.47;8.27;;;-0.80;99.90;;;;;;5099796;28;20232;-82
2022/12/10 01:39:56;;;;;;;8.30;8.10;;;-0.80;99.90;;;;;;5099181;28;20236;-82
2022/12/10 01:42:36;;;;;;;8.40;8.20;;;-0.70;99.90;;;;;;5098761;28;20316;-82
2022/12/10 01:45:24;;;;;;;8.17;7.97;;;-0.70;99.90;;;;;;5098874;28;20233;-81
2022/12/10 01:48:07;;;;;;;8.23;8.03;;;-0.70;99.90;;;;;;5103810;28;20249;-81
2022/12/10 01:50:48;;;;;;;8.13;7.93;;;-0.80;99.90;;;;;;5108003;28;20230;-82
2022/12/10 01:53:34;;;;;;;8.30;8.10;;;-0.80;99.90;;;;;;5100917;28;20244;-82
2022/12/10 01:56:06;;;;;;;8.70;8.50;;;-0.70;99.90;;;;;;5099735;28;20236;-82
2022/12/10 01:59:01;;;;;;;8.60;8.40;;;-0.70;99.90;;;;;;5099609;28;20298;-82
2022/12/10 02:01:52;;;;;;;8.40;8.20;;;-0.70;99.90;;;;;;5100138;28;20228;-81
2022/12/10 02:05:07;;;;;;;8.60;8.40;;;-0.60;99.90;;;;;;5099347;28;20296;-81
2022/12/10 02:08:00;;;;;;;8.17;7.97;;;-0.60;99.90;;;;;;5098833;28;20288;-81
2022/12/10 02:11:06;;;;;;;8.00;7.80;;;-0.60;99.90;;;;;;5099234;28;20229;-81
2022/12/10 02:13:51;;;;;;;8.40;8.20;;;-0.60;99.90;;;;;;5098097;28;20229;-81
2022/12/10 02:16:51;;;;;;;8.40;8.20;;;-0.70;99.90;;;;;;5100852;28;20242;-81
2022/12/10 02:19:43;;;;;;;8.50;8.30;;;-0.70;99.90;;;;;;5102524;28;20240;-81
2022/12/10 02:22:20;;;;;;;8.53;8.33;;;-0.70;99.90;;;;;;5100869;28;20239;-81
2022/12/10 02:25:03;;;;;;;8.37;8.17;;;-0.70;99.90;;;;;;5101455;28;20239;-81
2022/12/10 02:27:45;;;;;;;8.23;8.03;;;-0.60;99.90;;;;;;5101423;28;20376;-81
2022/12/10 02:33:12;;;;;;;8.30;8.10;;;-0.60;99.90;;;;;;5100580;28;20246;-81
2022/12/10 02:35:50;;;;;;;8.20;8.00;;;-0.50;99.90;;;;;;5101907;28;20224;-81
2022/12/10 02:38:31;;;;;;;8.40;8.20;;;-0.50;99.90;;;;;;5112437;27;20257;-81
2022/12/10 02:41:20;;;;;;;8.30;8.10;;;-0.50;99.90;;;;;;5102918;28;20322;-81
2022/12/10 02:43:59;;;;;;;8.30;8.10;;;-0.50;99.90;;;;;;5101200;28;20278;-81
2022/12/10 02:46:37;;;;;;;8.30;8.10;;;-0.50;99.90;;;;;;5101187;28;20232;-81
2022/12/10 02:49:13;;;;;;;8.27;8.07;;;-0.40;99.90;;;;;;5100254;28;20267;-81
2022/12/10 02:51:51;;;;;;;8.47;8.27;;;-0.40;99.90;;;;;;5100642;28;20229;-81
2022/12/10 02:54:49;;;;;;;8.43;8.23;;;-0.50;99.90;;;;;;5100358;28;20343;-81
2022/12/10 02:57:39;;;;;;;8.40;8.20;;;-0.40;99.90;;;;;;5100532;28;20221;-81
2022/12/10 03:00:33;;;;;;;8.40;8.20;;;-0.40;99.90;;;;;;5100193;28;20233;-81
2022/12/10 03:03:41;;;;;;;8.30;8.10;;;-0.40;99.90;;;;;;5100696;28;20237;-81
2022/12/10 03:06:40;;;;;;;8.43;8.23;;;-0.30;99.90;;;;;;5100505;28;20315;-81
2022/12/10 03:09:34;;;;;;;8.30;8.10;;;-0.40;99.90;;;;;;5101568;28;20234;-81
2022/12/10 03:12:41;;;;;;;8.47;8.27;;;-0.40;99.90;;;;;;5100730;28;20238;-81
2022/12/10 03:15:29;;;;;;;8.30;8.10;;;-0.50;99.90;;;;;;5100310;28;20331;-80
2022/12/10 03:18:09;;;;;;;8.43;8.23;;;-0.40;99.90;;;;;;5100966;28;20225;-81
2022/12/10 03:20:46;;;;;;;8.33;8.13;;;-0.30;99.90;;;;;;5100945;28;20240;-81
2022/12/10 03:23:23;;;;;;;8.30;8.10;;;-0.30;99.90;;;;;;5110063;28;20237;-81
2022/12/10 03:26:03;;;;;;;8.60;8.40;;;-0.40;99.90;;;;;;5120488;27;20228;-80
2022/12/10 03:31:36;;;;;;;8.37;8.17;;;-0.60;99.90;;;;;;5120855;27;20271;-80
2022/12/10 03:34:16;;;;;;;8.37;8.17;;;-0.60;99.90;;;;;;5121607;27;20240;-80
2022/12/10 03:36:59;;;;;;;8.40;8.20;;;-0.60;99.90;;;;;;5121716;27;20235;-80
2022/12/10 03:39:36;;;;;;;8.60;8.40;;;-0.60;99.90;;;;;;5121676;27;20216;-80
2022/12/10 03:42:22;;;;;;;8.63;8.43;;;-0.50;99.90;;;;;;5121027;27;20212;-81
2022/12/10 03:44:58;;;;;;;8.47;8.27;;;-0.50;99.90;;;;;;5120253;27;20288;-82
2022/12/10 03:47:57;;;;;;;8.50;8.30;;;-0.60;99.90;;;;;;5102400;28;20243;-82
2022/12/10 03:50:47;;;;;;;8.47;8.27;;;-0.50;99.90;;;;;;5107741;28;20225;-81
2022/12/10 03:53:26;;;;;;;8.77;8.57;;;-0.50;99.90;;;;;;5100767;28;20232;-82
2022/12/10 03:56:05;;;;;;;8.60;8.40;;;-0.50;99.90;;;;;;5099292;28;20685;-81
2022/12/10 03:58:47;;;;;;;8.73;8.53;;;-0.50;99.90;;;;;;5105009;28;20248;-81
2022/12/10 04:01:42;;;;;;;8.50;8.30;;;-0.50;99.90;;;;;;5101458;28;20251;-82
2022/12/10 04:04:26;;;;;;;8.63;8.43;;;-0.40;99.90;;;;;;5108398;28;20213;-81
2022/12/10 04:07:09;;;;;;;8.40;8.20;;;-0.40;99.90;;;;;;5119511;27;20233;-81
2022/12/10 04:16:26;;;;;;;8.70;8.50;;;-0.30;99.90;;;;;;5097881;28;20239;-81
2022/12/10 04:18:37;;;;;;;8.57;8.37;;;-0.30;99.90;;;;;;5098646;28;20706;-81
2022/12/10 04:27:08;;;;;;;8.60;8.40;;;-0.40;99.90;;;;;;5101605;28;20220;-81
2022/12/10 04:29:52;;;;;;;8.60;8.40;;;-0.30;99.90;;;;;;5102277;28;20292;-81
2022/12/10 04:32:27;;;;;;;8.60;8.40;;;-0.30;99.90;;;;;;5102209;28;20236;-81
2022/12/10 04:35:00;;;;;;;8.87;8.63;;;-0.30;99.90;;;;;;5102259;28;20259;-81
2022/12/10 04:37:38;;;;;;;8.70;8.50;;;-0.30;99.90;;;;;;5100779;28;20221;-81
2022/12/10 04:40:22;;;;;;;8.70;8.50;;;-0.30;99.90;;;;;;5099880;28;20236;-81
2022/12/10 04:43:01;;;;;;;8.83;8.63;;;-0.30;99.90;;;;;;5099895;28;20243;-81
2022/12/10 04:45:42;;;;;;;8.67;8.47;;;-0.20;99.90;;;;;;5100103;28;20225;-80
2022/12/10 04:48:27;;;;;;;8.67;8.47;;;-0.30;99.90;;;;;;5099515;28;20227;-81
2022/12/10 04:51:07;;;;;;;8.40;8.20;;;-0.30;99.90;;;;;;5099083;28;20232;-81
2022/12/10 04:57:19;;;;;;;8.70;8.50;;;-0.30;99.90;;;;;;5136243;27;20603;-81
2022/12/10 04:59:59;;;;;;;8.60;8.40;;;-0.40;99.90;;;;;;5137216;27;20236;-81
2022/12/10 05:05:52;;;;;;;8.43;8.23;;;-0.40;99.90;;;;;;5136157;27;20226;-81
2022/12/10 05:08:46;;;;;;;8.67;8.47;;;-0.30;99.90;;;;;;5137780;27;20230;-81
2022/12/10 05:11:23;;;;;;;8.37;8.17;;;-0.40;99.90;;;;;;5137492;27;20236;-81
2022/12/10 05:17:03;;;;;;;8.80;8.60;;;-0.30;99.90;;;;;;5136900;27;20254;-81
2022/12/10 05:19:38;;;;;;;8.50;8.30;;;-0.30;99.90;;;;;;5139819;27;20272;-81
2022/12/10 05:42:07;;;;;;;8.50;8.30;;;-0.70;99.90;;;;;;5073897;28;20401;-81
2022/12/10 05:48:38;;;;;;;8.57;8.37;;;-0.80;99.90;;;;;;5032584;28;20242;-81
2022/12/10 05:51:31;;;;;;;8.70;8.50;;;-0.90;99.90;;;;;;5126831;27;20227;-81
2022/12/10 06:04:09;;;;;;;8.40;8.20;;;-0.90;99.90;;;;;;5137395;27;20308;-81
2022/12/10 06:10:12;;;;;;;8.60;8.40;;;-1.00;99.90;;;;;;5124256;27;20232;-80
2022/12/10 06:12:48;;;;;;;8.43;8.23;;;-1.00;99.90;;;;;;5123496;27;20329;-81
2022/12/10 06:15:50;;;;;;;8.40;8.20;;;-1.00;99.90;;;;;;5128165;27;20214;-81
2022/12/10 06:22:24;;;;;;;8.40;8.20;;;-1.00;99.90;;;;;;5130559;27;20249;-80
2022/12/10 06:25:16;;;;;;;8.30;8.10;;;-1.00;99.90;;;;;;5139251;27;20226;-80
2022/12/10 06:28:02;;;;;;;8.10;7.90;;;-1.00;99.90;;;;;;5143138;27;20221;-80
2022/12/10 06:31:00;;;;;;;8.20;8.00;;;-1.00;99.90;;;;;;5141150;27;20234;-81
2022/12/10 06:33:41;;;;;;;8.10;7.90;;;-1.00;99.90;;;;;;5127673;27;20282;-81
2022/12/10 06:36:48;;;;;;;8.40;8.20;;;-0.90;99.90;;;;;;5125832;27;20321;-81
2022/12/10 06:42:55;;;;;;;8.20;8.00;;;-1.10;99.90;;;;;;5091015;27;20227;-81
2022/12/10 06:48:55;;;;;;;8.60;8.40;;;-1.20;99.90;;;;;;5121151;27;20212;-81
2022/12/10 06:54:37;;;;;;;8.60;8.40;;;-1.30;99.90;;;;;;5127427;22;20234;-80
2022/12/10 06:57:05;;;;;;;8.50;8.30;;;-1.20;99.90;;;;;;5106481;28;20463;-81
2022/12/10 06:59:32;;;;;;;8.53;8.33;;;-1.20;99.90;;;;;;5106831;28;20231;-81
2022/12/10 07:02:02;;;;;;;8.70;8.50;;;-1.20;99.90;;;;;;5105754;28;20324;-81
2022/12/10 07:04:31;;;;;;;8.60;8.40;;;-1.20;99.90;;;;;;5123355;28;20242;-81
2022/12/10 07:07:10;;;;;;;8.57;8.37;;;-1.20;99.90;;;;;;5126733;28;20304;-81
2022/12/10 07:09:41;;;;;;;8.97;8.67;;;-1.20;99.90;;;;;;5125643;28;20230;-81
2022/12/10 07:12:09;;;;;;;8.47;8.27;;;-1.20;99.90;;;;;;5126340;28;20487;-81
2022/12/10 07:14:37;;;;;;;8.47;8.27;;;-1.20;99.90;;;;;;5128050;28;20228;-81
2022/12/10 07:17:08;;;;;;;8.50;8.30;;;-1.20;99.90;;;;;;5127012;28;20268;-81
2022/12/10 07:19:38;;;;;;;8.33;8.13;;;-1.20;99.90;;;;;;5128969;28;20231;-81
2022/12/10 07:22:18;;;;;;;8.17;7.97;;;-1.10;99.90;;;;;;5136287;28;20310;-81
2022/12/10 07:24:46;;;;;;;8.27;8.07;;;-1.20;99.90;;;;;;5127537;28;20262;-81
2022/12/10 07:27:14;;;;;;;8.30;8.10;;;-1.20;99.90;;;;;;5127757;28;20250;-81
2022/12/10 07:29:46;;;;;;;8.20;8.00;;;-1.20;99.90;;;;;;5127183;28;20950;-80
2022/12/10 07:32:14;;;;;;;8.33;8.13;;;-1.30;99.90;;;;;;5126193;28;20241;-81
2022/12/10 07:34:42;;;;;;;8.23;8.03;;;-1.30;99.90;;;;;;5126189;28;20329;-81
2022/12/10 07:37:16;;;;;;;8.20;8.00;;;-1.30;99.90;;;;;;5126218;28;20245;-81
2022/12/10 07:39:43;;;;;;;8.20;8.00;;;-1.20;99.90;;;;;;5125469;28;20231;-81
2022/12/10 07:42:11;;;;;;;8.30;8.10;;;-1.30;99.90;;;;;;5126481;28;20322;-81
2022/12/10 07:44:40;;;;;;;8.30;8.10;;;-1.40;99.90;;;;;;5126554;28;20242;-81
2022/12/10 07:47:10;;;;;;;8.17;7.97;;;-1.40;99.90;;;;;;5126196;28;20236;-81
2022/12/10 07:49:39;;;;;;;8.40;8.20;;;-1.40;99.90;;;;;;5126245;28;20255;-81
2022/12/10 07:52:09;;;;;;;8.30;8.10;;;-1.40;99.90;;;;;;5125978;28;20241;-81
2022/12/10 07:54:50;;;;;;;8.40;8.20;;;-1.40;99.90;;;;;;5134708;28;20232;-81
2022/12/10 07:57:18;;;;;;;8.50;8.30;;;-1.40;99.90;;;;;;5131813;28;20244;-81
2022/12/10 07:59:48;;;;;;;8.43;8.23;;;-1.40;99.90;;;;;;5128131;28;20761;-81
2022/12/10 08:02:16;;;;;;;8.50;8.30;;;-1.30;99.90;;;;;;5126557;28;20296;-82
2022/12/10 08:04:49;;;;;;;8.30;8.10;;;-1.20;99.90;;;;;;5126640;28;20336;-81
2022/12/10 08:07:16;;;;;;;8.40;8.20;;;-1.20;99.90;;;;;;5129764;28;20250;-81
2022/12/10 08:09:48;;;;;;;8.60;8.40;;;-1.10;99.90;;;;;;5129492;28;20321;-81
2022/12/10 08:12:16;;;;;;;8.40;8.20;;;-1.00;99.90;;;;;;5128557;28;20215;-81
2022/12/10 08:14:44;;;;;;;8.43;8.23;;;-0.90;99.90;;;;;;5127150;28;20319;-81
2022/12/10 08:17:14;;;;;;;8.80;8.60;;;-0.90;99.90;;;;;;5127751;28;20245;-81
2022/12/10 08:19:42;;;;;;;8.73;8.53;;;-0.80;99.90;;;;;;5127063;28;20296;-81
2022/12/10 08:22:12;;;;;;;8.80;8.60;;;-0.70;99.90;;;;;;5127162;28;20263;-82
2022/12/10 08:24:42;;;;;;;9.10;8.80;;;-0.60;99.90;;;;;;5126013;28;20280;-81
2022/12/10 08:27:14;;;;;;;9.10;8.80;;;-0.60;99.90;;;;;;5125901;28;20324;-82
2022/12/10 08:29:41;;;;;;;9.10;8.80;;;-0.50;99.90;;;;;;5125401;27;20236;-82
2022/12/10 08:32:10;;;;;;;9.10;8.80;;;-0.50;99.90;;;;;;5125264;28;20228;-83
2022/12/10 08:34:40;;;;;;;9.13;8.83;;;-0.40;99.90;;;;;;5128824;28;20239;-82
2022/12/10 08:37:09;;;;;;;9.20;8.90;;;-0.30;99.90;;;;;;5126271;28;20238;-83
2022/12/10 08:39:40;;;;;;;9.13;8.83;;;-0.20;99.90;;;;;;5124916;28;20238;-82
2022/12/10 08:42:07;;;;;;;9.10;8.80;;;-0.20;99.90;;;;;;5125725;28;20298;-83
2022/12/10 08:44:47;;;;;;;9.40;9.10;;;-0.10;99.90;;;;;;5123944;28;20333;-82
2022/12/10 08:47:15;;;;;;;9.47;9.17;;;0.00;99.90;;;;;;5125456;28;20272;-82
2022/12/10 08:49:44;;;;;;;9.40;9.10;;;0.00;99.90;;;;;;5126076;28;20284;-82
2022/12/10 08:52:14;;;;;;;9.10;8.80;;;0.00;99.90;;;;;;5124644;28;20232;-82
2022/12/10 08:54:46;;;;;;;9.20;8.90;;;0.10;99.90;;;;;;5125110;28;20243;-82
2022/12/10 08:57:14;;;;;;;9.30;9.00;;;0.10;99.90;;;;;;5125164;28;20267;-82
2022/12/10 08:59:43;;;;;;;9.10;8.80;;;0.10;99.90;;;;;;5125620;28;20266;-82
2022/12/10 09:02:12;;;;;;;9.27;8.97;;;0.10;99.90;;;;;;5126019;28;20224;-82
2022/12/10 09:04:42;;;;;;;8.80;8.60;;;0.10;99.90;;;;;;5124968;28;20224;-83
2022/12/10 09:07:11;;;;;;;9.00;8.70;;;0.00;99.90;;;;;;5125883;28;20236;-83
2022/12/10 09:09:40;;;;;;;9.10;8.80;;;0.00;99.90;;;;;;5125760;28;20231;-82
2022/12/10 09:12:12;;;;;;;8.80;8.60;;;0.20;99.90;;;;;;5124332;28;20256;-83
2022/12/10 09:14:40;;;;;;;9.10;8.80;;;0.40;99.90;;;;;;5124522;28;20243;-82
2022/12/10 09:17:18;;;;;;;8.83;8.63;;;0.50;99.90;;;;;;5125596;28;20247;-82
2022/12/10 09:19:47;;;;;;;9.37;9.07;;;0.60;99.90;;;;;;5124594;28;20232;-82
2022/12/10 09:22:16;;;;;;;9.00;8.70;;;0.70;99.90;;;;;;5125043;28;20217;-82
2022/12/10 09:24:46;;;;;;;9.20;8.90;;;0.60;99.90;;;;;;5125617;28;20232;-82
2022/12/10 09:27:17;;;;;;;9.20;8.90;;;0.60;99.90;;;;;;5125204;28;20288;-83
2022/12/10 09:29:45;;;;;;;9.20;8.90;;;0.60;99.90;;;;;;5125330;28;20235;-82
2022/12/10 09:32:17;;;;;;;9.13;8.83;;;0.70;99.90;;;;;;5128831;28;20243;-82
2022/12/10 09:34:45;;;;;;;9.27;8.97;;;0.80;99.90;;;;;;5135366;28;20240;-82
2022/12/10 09:37:13;;;;;;;8.97;8.70;;;0.80;99.90;;;;;;5129442;28;20279;-82
2022/12/10 09:39:44;;;;;;;8.80;8.60;;;0.90;99.90;;;;;;5127970;28;20256;-82
2022/12/10 09:42:30;;;;;;;9.10;8.80;;;1.00;99.90;;;;;;5129540;27;20272;-82
2022/12/10 09:45:08;;;;;;;8.80;8.60;;;1.00;99.90;;;;;;5130650;28;20750;-82
2022/12/10 09:47:55;;;;;;;8.87;8.63;;;1.00;99.90;;;;;;5130602;28;20411;-82
2022/12/10 09:50:33;;;;;;;9.30;9.00;;;1.00;99.90;;;;;;5129220;28;20236;-82
2022/12/10 09:53:03;;;;;;;9.20;8.90;;;0.80;99.90;;;;;;5126627;28;20279;-82
2022/12/10 09:55:36;;;;;;;9.20;8.90;;;0.70;99.90;;;;;;5128174;28;20240;-82
2022/12/10 09:58:12;;;;;;;9.50;9.20;;;0.80;99.90;;;;;;5127965;28;20281;-82
2022/12/10 10:00:43;;;;;;;9.40;9.10;;;0.80;99.90;;;;;;5130872;28;20229;-81
2022/12/10 10:03:21;;;;;;;9.40;9.10;;;0.90;99.90;;;;;;5137250;28;20233;-82
2022/12/10 10:05:51;;;;;;;9.40;9.10;;;0.90;99.90;;;;;;5131026;28;20231;-82
2022/12/10 10:08:28;;;;;;;9.43;9.13;;;1.00;99.90;;;;;;5129633;28;20227;-81
2022/12/10 10:10:57;;;;;;;9.43;9.13;;;1.00;99.90;;;;;;5129020;28;20256;-82
2022/12/10 10:13:35;;;;;;;9.40;9.10;;;1.10;99.90;;;;;;5128764;28;20247;-82
2022/12/10 10:16:25;;;;;;;9.30;9.00;;;1.20;99.90;;;;;;5128763;28;20243;-81
2022/12/10 10:19:01;;;;;;;9.40;9.10;;;1.40;99.90;;;;;;5127992;28;20292;-81
2022/12/10 10:21:38;;;;;;;9.40;9.10;;;1.50;99.90;;;;;;5127490;28;20244;-82
2022/12/10 10:24:09;;;;;;;9.50;9.20;;;1.60;99.90;;;;;;5127069;28;20268;-81
2022/12/10 10:26:37;;;;;;;9.60;9.30;;;1.50;99.90;;;;;;5128167;28;20306;-81
2022/12/10 10:29:09;;;;;;;9.40;9.10;;;1.50;99.90;;;;;;5127053;28;20232;-81
2022/12/10 10:31:45;;;;;;;9.57;9.27;;;1.50;99.90;;;;;;5127820;28;20256;-82
2022/12/10 10:34:25;;;;;;;9.03;8.73;;;1.60;99.90;;;;;;5127573;28;20236;-81
2022/12/10 10:37:02;;;;;;;9.00;8.70;;;1.60;99.90;;;;;;5128964;28;20224;-81
2022/12/10 10:39:34;;;;;;;9.20;8.90;;;1.60;99.90;;;;;;5128371;28;20233;-82
2022/12/10 10:42:10;;;;;;;9.30;9.00;;;1.60;99.90;;;;;;5128372;28;20233;-82
2022/12/10 10:44:39;;;;;;;8.97;8.70;;;1.60;99.90;;;;;;5127408;28;20295;-83
2022/12/10 10:47:28;;;;;;;9.10;8.80;;;1.60;99.90;;;;;;5127890;28;20221;-83
2022/12/10 10:49:58;;;;;;;8.90;8.70;;;1.60;99.90;;;;;;5127915;28;20225;-83
2022/12/10 10:52:34;;;;;;;9.20;8.90;;;1.50;99.90;;;;;;5126574;27;20233;-83
2022/12/10 10:55:02;;;;;;;8.80;8.60;;;1.50;99.90;;;;;;5126516;28;20232;-82
2022/12/10 10:57:42;;;;;;;9.20;8.90;;;1.40;99.90;;;;;;5126421;28;20276;-83
2022/12/10 11:00:22;;;;;;;9.30;9.00;;;1.50;99.90;;;;;;5126424;28;20232;-82
2022/12/10 11:02:50;;;;;;;9.40;9.10;;;1.60;99.90;;;;;;5126218;28;20315;-83
2022/12/10 11:05:26;;;;;;;9.27;8.97;;;1.50;99.90;;;;;;5128012;28;20321;-82
2022/12/10 11:08:07;;;;;;;9.10;8.80;;;1.50;99.90;;;;;;5127967;28;20220;-83
2022/12/10 11:10:37;;;;;;;9.47;9.17;;;1.50;99.90;;;;;;5127106;28;20262;-83
2022/12/10 11:13:12;;;;;;;9.40;9.10;;;1.60;99.90;;;;;;5127767;28;20228;-82
2022/12/10 11:15:42;;;;;;;9.40;9.10;;;1.70;99.90;;;;;;5127390;28;20293;-82
2022/12/10 11:18:29;;;;;;;9.47;9.17;;;1.80;99.90;;;;;;5127520;28;20284;-83
2022/12/10 11:21:07;;;;;;;9.30;9.00;;;1.90;99.90;;;;;;5126750;28;20245;-82
2022/12/10 11:23:47;;;;;;;9.20;8.90;;;2.00;99.90;;;;;;5126749;28;20243;-83
2022/12/10 11:26:41;;;;;;;9.30;9.00;;;1.90;99.90;;;;;;5134112;28;20232;-82
2022/12/10 11:29:29;;;;;;;9.30;9.00;;;1.90;99.90;;;;;;5139895;28;20284;-83
2022/12/10 11:32:15;;;;;;;9.30;9.00;;;1.70;99.90;;;;;;5128654;28;20236;-82
2022/12/10 11:35:05;;;;;;;9.50;9.20;;;1.50;99.90;;;;;;5126915;28;20232;-82
2022/12/10 11:37:40;;;;;;;9.50;9.20;;;1.50;99.90;;;;;;5126681;28;20236;-82
2022/12/10 11:40:29;;;;;;;9.50;9.20;;;1.60;99.90;;;;;;5126136;28;20212;-83
2022/12/10 11:43:16;;;;;;;9.30;9.00;;;1.60;99.90;;;;;;5126140;28;20239;-82
2022/12/10 11:46:02;;;;;;;9.30;9.00;;;1.60;99.90;;;;;;5125727;28;20228;-83
2022/12/10 11:48:49;;;;;;;9.00;8.70;;;1.60;99.90;;;;;;5125588;28;20282;-83
2022/12/10 11:51:30;;;;;;;9.23;8.93;;;1.60;99.90;;;;;;5125086;28;20221;-81
2022/12/10 11:54:27;;;;;;;9.37;9.07;;;1.80;99.90;;;;;;5125686;28;20240;-83
2022/12/10 11:57:04;;;;;;;9.20;8.90;;;1.80;99.90;;;;;;5125419;28;20237;-83
2022/12/10 11:59:41;;;;;;;9.40;9.10;;;1.80;99.90;;;;;;5125608;28;20220;-82
2022/12/10 12:02:46;;;;;;;9.10;8.80;;;1.70;99.90;;;;;;5126733;28;20204;-82
2022/12/10 12:05:41;;;;;;;9.10;8.80;;;1.60;99.90;;;;;;5126227;27;20276;-82
2022/12/10 12:08:20;;;;;;;9.13;8.83;;;1.60;99.90;;;;;;5125376;28;20229;-83
2022/12/10 12:11:15;;;;;;;9.43;9.13;;;1.70;99.90;;;;;;5132675;28;20247;-83
2022/12/10 12:13:55;;;;;;;9.17;8.87;;;1.70;99.90;;;;;;5132210;28;20236;-82
2022/12/10 12:16:34;;;;;;;9.27;8.97;;;1.80;99.90;;;;;;5127848;28;20220;-83
2022/12/10 12:19:11;;;;;;;9.23;8.93;;;1.70;99.90;;;;;;5126234;28;20323;-82
2022/12/10 12:21:40;;;;;;;9.27;8.97;;;1.70;99.90;;;;;;5126389;28;20276;-82
2022/12/10 12:24:17;;;;;;;9.30;9.00;;;1.70;99.90;;;;;;5126066;28;20220;-82
2022/12/10 12:26:58;;;;;;;9.13;8.83;;;1.70;99.90;;;;;;5128706;28;20256;-81
2022/12/10 12:29:36;;;;;;;9.30;9.00;;;1.70;99.90;;;;;;5125302;28;20703;-81
2022/12/10 12:32:12;;;;;;;9.50;9.20;;;1.80;99.90;;;;;;5126482;28;20252;-82
2022/12/10 12:34:50;;;;;;;9.40;9.10;;;1.80;99.90;;;;;;5125640;28;20235;-81
2022/12/10 12:37:22;;;;;;;9.60;9.30;;;1.70;99.90;;;;;;5125035;28;20308;-81
2022/12/10 12:39:58;;;;;;;9.50;9.20;;;1.60;99.90;;;;;;5126010;28;20252;-82
2022/12/10 12:42:37;;;;;;;9.40;9.10;;;1.50;99.90;;;;;;5124601;28;20224;-81
2022/12/10 12:45:15;;;;;;;9.30;9.00;;;1.50;99.90;;;;;;5125296;28;20245;-81
2022/12/10 12:47:53;;;;;;;9.20;8.90;;;1.50;99.90;;;;;;5125428;28;20236;-81
2022/12/10 12:50:34;;;;;;;9.37;9.07;;;1.60;99.90;;;;;;5126604;28;20243;-82
2022/12/10 13:04:03;;;;;;;9.40;9.10;;;1.30;99.90;;;;;;5054742;28;20620;-82
2022/12/10 13:11:20;;;;;;;8.97;8.70;;;1.30;99.90;;;;;;4939615;29;20230;-82
2022/12/10 13:15:01;;;;;;;9.23;8.93;;;1.40;99.90;;;;;;5038938;28;21105;-82
2022/12/10 13:18:49;;;;;;;9.00;8.70;;;1.40;99.90;;;;;;5045660;28;20279;-82
2022/12/10 13:22:25;;;;;;;9.00;8.70;;;1.50;99.90;;;;;;4968462;28;20325;-82
2022/12/10 13:33:11;;;;;;;9.10;8.80;;;1.50;99.90;;;;;;5017538;28;20243;-82
2022/12/10 13:36:23;;;;;;;9.17;8.87;;;1.50;99.90;;;;;;5039260;28;20247;-82
2022/12/10 13:51:29;;;;;;;9.30;9.00;;;1.30;99.90;;;;;;4971139;28;20227;-82
2022/12/10 13:55:03;;;;;;;9.30;9.00;;;1.30;99.90;;;;;;4961551;28;20261;-83
2022/12/10 13:58:20;;;;;;;9.20;8.90;;;1.30;99.90;;;;;;4962705;28;20234;-82
2022/12/10 14:01:19;;;;;;;8.90;8.67;;;1.30;99.90;;;;;;5046935;28;20234;-81
2022/12/10 14:07:51;;;;;;;8.80;8.60;;;1.20;99.90;;;;;;4981738;28;20242;-81
2022/12/10 14:24:50;;;;;;;8.80;8.60;;;1.50;99.90;;;;;;5027635;28;20301;-82
2022/12/10 14:41:43;;;;;;;8.80;8.60;;;1.30;99.90;;;;;;5041068;28;20250;-81
2022/12/10 14:44:43;;;;;;;9.20;8.90;;;1.30;99.90;;;;;;5042146;28;20228;-81
2022/12/10 14:50:43;;;;;;;9.20;8.90;;;1.30;99.90;;;;;;5042356;28;20239;-81
2022/12/10 14:54:31;;;;;;;;;;;;;;;;;;;;;
2022/12/10 15:01:41;;;;;;;8.93;8.63;;;1.20;99.90;;;;;;5037750;28;20234;-81
2022/12/10 15:21:38;;;;;;;8.60;8.40;;;1.10;99.90;;;;;;5042201;28;20228;-82
2022/12/10 15:24:44;;;;;;;8.40;8.20;;;1.10;99.90;;;;;;5048945;28;20231;-82
2022/12/10 15:30:57;;;;;;;8.67;8.47;;;1.10;99.90;;;;;;5048391;28;20370;-81
2022/12/10 16:01:21;;;;;;;8.20;8.00;;;0.80;99.90;;;;;;4892400;28;20244;-83
2022/12/10 16:19:38;;;;;;;8.30;8.10;;;0.90;99.90;;;;;;5028981;28;20329;-82
2022/12/10 16:22:20;;;;;;;8.30;8.10;;;0.90;99.90;;;;;;5041159;28;20235;-83
2022/12/10 16:47:25;;;;;;;8.10;7.90;;;0.80;99.90;;;;;;5036302;28;20227;-83
2022/12/10 17:01:22;;;;;;;8.60;8.40;;;0.70;99.90;;;;;;5049864;28;20215;-83
2022/12/10 17:07:07;;;;;;;8.20;8.00;;;0.70;99.90;;;;;;5095612;28;20241;-83
2022/12/10 17:13:00;;;;;;;8.37;8.17;;;0.80;99.90;;;;;;5103394;28;20232;-82
2022/12/10 17:25:19;;;;;;;8.40;8.20;;;0.80;99.90;;;;;;5091764;28;20257;-82
2022/12/10 17:28:10;;;;;;;8.40;8.20;;;0.80;99.90;;;;;;5081465;28;20237;-83
2022/12/10 17:37:55;;;;;;;8.10;7.90;;;0.80;99.90;;;;;;5065293;28;20293;-83
2022/12/10 17:44:05;;;;;;;8.17;7.97;;;0.70;99.90;;;;;;5053451;28;20230;-82
2022/12/10 17:46:41;;;;;;;8.10;7.90;;;0.70;99.90;;;;;;5089197;28;20215;-82
2022/12/10 17:52:35;;;;;;;8.10;7.90;;;0.60;99.90;;;;;;5067948;28;20238;-82
2022/12/10 17:55:14;;;;;;;7.90;7.70;;;0.60;99.90;;;;;;5079685;28;20233;-82
2022/12/10 17:58:03;;;;;;;7.90;7.70;;;0.60;99.90;;;;;;5079800;28;20225;-82
2022/12/10 18:00:48;;;;;;;8.00;7.80;;;0.60;99.90;;;;;;5078601;28;20230;-82
2022/12/10 18:06:26;;;;;;;8.03;7.83;;;0.60;99.90;;;;;;5081956;28;20226;-81
2022/12/10 18:09:18;;;;;;;;;;;;;;;;;;;;;
2022/12/10 18:15:02;;;;;;;8.20;8.00;;;0.50;99.90;;;;;;5094543;28;20221;-83
2022/12/10 18:24:05;;;;;;;8.40;8.20;;;0.50;99.90;;;;;;5072261;28;20218;-83
2022/12/10 18:26:55;;;;;;;8.27;8.07;;;0.50;99.90;;;;;;5082456;28;20338;-82
2022/12/10 18:29:31;;;;;;;8.40;8.20;;;0.50;99.90;;;;;;5082171;28;20324;-83
2022/12/10 18:32:20;;;;;;;8.17;7.97;;;0.50;99.90;;;;;;5081655;28;20229;-83
2022/12/10 18:35:04;;;;;;;8.17;7.97;;;0.50;99.90;;;;;;5081536;28;20257;-83
2022/12/10 18:37:44;;;;;;;8.40;8.20;;;0.50;99.90;;;;;;5081630;28;20239;-83
2022/12/10 18:40:23;;;;;;;8.50;8.30;;;0.60;99.90;;;;;;5080419;28;20312;-83
2022/12/10 18:46:23;;;;;;;8.40;8.20;;;0.70;99.90;;;;;;5079447;28;20234;-83
2022/12/10 18:49:11;;;;;;;8.27;8.07;;;0.70;99.90;;;;;;5084201;28;20217;-82
2022/12/10 18:52:15;;;;;;;8.17;7.97;;;0.70;99.90;;;;;;5090506;28;20296;-84
2022/12/10 18:54:43;;;;;;;8.20;8.00;;;0.70;99.90;;;;;;5120559;22;20248;-80
2022/12/10 18:57:13;;;;;;;8.37;8.17;;;0.60;99.90;;;;;;5089821;28;20238;-81
2022/12/10 18:59:41;;;;;;;8.33;8.13;;;0.50;99.90;;;;;;5086069;28;20230;-81
2022/12/10 19:02:10;;;;;;;8.50;8.30;;;0.50;99.90;;;;;;5084648;28;21030;-81
2022/12/10 19:04:38;;;;;;;8.00;7.80;;;0.60;99.90;;;;;;5084884;28;20234;-79